sensor_id;sensor_type;location;lat;lon;timestamp;temperature;humidity
7248;DHT22;3665;51.034;13.642;2022-08-01T00:03:36;19.60;1.00
7248;DHT22;3665;51.034;13.642;2022-08-01T00:08:22;19.60;1.00
7248;DHT22;3665;51.034;13.642;2022-08-01T00:13:06;19.50;1.00
7248;DHT22;3665;51.034;13.642;2022-08-01T00:17:52;19.40;1.00
7248;DHT22;3665;51.034;13.642;2022-08-01T00:22:36;19.40;1.00
7248;DHT22;3665;51.034;13.642;2022-08-01T00:27:25;19.40;1.00
7248;DHT22;3665;51.034;13.642;2022-08-01T00:32:14;19.40;1.00
7248;DHT22;3665;51.034;13.642;2022-08-01T00:36:58;19.40;1.00
7248;DHT22;3665;51.034;13.642;2022-08-01T00:41:45;19.40;1.00
7248;DHT22;3665;51.034;13.642;2022-08-01T00:46:43;19.20;1.00
7248;DHT22;3665;51.034;13.642;2022-08-01T00:51:28;19.00;1.00
7248;DHT22;3665;51.034;13.642;2022-08-01T00:56:12;18.80;1.00
7248;DHT22;3665;51.034;13.642;2022-08-01T01:00:58;18.70;1.00
7248;DHT22;3665;51.034;13.642;2022-08-01T01:05:53;18.60;1.00
7248;DHT22;3665;51.034;13.642;2022-08-01T01:10:55;18.40;1.00
7248;DHT22;3665;51.034;13.642;2022-08-01T01:15:45;18.10;1.00
7248;DHT22;3665;51.034;13.642;2022-08-01T01:20:44;18.00;1.00
7248;DHT22;3665;51.034;13.642;2022-08-01T01:26:00;18.00;1.00
7248;DHT22;3665;51.034;13.642;2022-08-01T01:30:53;18.20;1.00
7248;DHT22;3665;51.034;13.642;2022-08-01T01:35:44;18.30;1.00
7248;DHT22;3665;51.034;13.642;2022-08-01T01:40:33;18.40;1.00
7248;DHT22;3665;51.034;13.642;2022-08-01T01:45:18;18.50;1.00
7248;DHT22;3665;51.034;13.642;2022-08-01T01:50:08;18.50;1.00
7248;DHT22;3665;51.034;13.642;2022-08-01T01:54:57;18.50;1.00
7248;DHT22;3665;51.034;13.642;2022-08-01T01:59:41;18.40;1.00
7248;DHT22;3665;51.034;13.642;2022-08-01T02:04:27;18.40;1.00
7248;DHT22;3665;51.034;13.642;2022-08-01T02:09:18;18.50;1.00
7248;DHT22;3665;51.034;13.642;2022-08-01T02:14:06;18.50;1.00
7248;DHT22;3665;51.034;13.642;2022-08-01T02:18:51;18.60;1.00
7248;DHT22;3665;51.034;13.642;2022-08-01T02:23:37;18.70;1.00
7248;DHT22;3665;51.034;13.642;2022-08-01T02:28:25;18.90;1.00
7248;DHT22;3665;51.034;13.642;2022-08-01T02:33:16;19.00;1.00
7248;DHT22;3665;51.034;13.642;2022-08-01T02:38:01;19.00;1.00
7248;DHT22;3665;51.034;13.642;2022-08-01T02:42:49;19.00;1.00
7248;DHT22;3665;51.034;13.642;2022-08-01T02:47:36;19.20;1.00
7248;DHT22;3665;51.034;13.642;2022-08-01T02:52:23;19.10;1.00
7248;DHT22;3665;51.034;13.642;2022-08-01T02:57:09;19.00;1.00
7248;DHT22;3665;51.034;13.642;2022-08-01T03:01:56;18.80;1.00
7248;DHT22;3665;51.034;13.642;2022-08-01T03:06:46;18.80;1.00
7248;DHT22;3665;51.034;13.642;2022-08-01T03:11:31;18.70;1.00
7248;DHT22;3665;51.034;13.642;2022-08-01T03:16:16;18.60;1.00
7248;DHT22;3665;51.034;13.642;2022-08-01T03:21:00;18.50;1.00
7248;DHT22;3665;51.034;13.642;2022-08-01T03:25:47;18.60;1.00
7248;DHT22;3665;51.034;13.642;2022-08-01T03:30:33;18.60;1.00
7248;DHT22;3665;51.034;13.642;2022-08-01T03:35:19;18.60;1.00
7248;DHT22;3665;51.034;13.642;2022-08-01T03:40:07;18.60;1.00
7248;DHT22;3665;51.034;13.642;2022-08-01T03:44:54;18.70;1.00
7248;DHT22;3665;51.034;13.642;2022-08-01T03:49:43;18.90;1.00
7248;DHT22;3665;51.034;13.642;2022-08-01T03:54:31;18.90;1.00
7248;DHT22;3665;51.034;13.642;2022-08-01T03:59:16;19.00;1.00
7248;DHT22;3665;51.034;13.642;2022-08-01T04:04:03;19.00;1.00
7248;DHT22;3665;51.034;13.642;2022-08-01T04:08:48;18.90;1.00
7248;DHT22;3665;51.034;13.642;2022-08-01T04:13:38;18.90;1.00
7248;DHT22;3665;51.034;13.642;2022-08-01T04:18:25;18.90;1.00
7248;DHT22;3665;51.034;13.642;2022-08-01T04:23:11;18.90;1.00
7248;DHT22;3665;51.034;13.642;2022-08-01T04:27:57;19.00;1.00
7248;DHT22;3665;51.034;13.642;2022-08-01T04:32:43;19.00;1.00
7248;DHT22;3665;51.034;13.642;2022-08-01T04:37:28;19.10;1.00
7248;DHT22;3665;51.034;13.642;2022-08-01T04:42:14;19.20;1.00
7248;DHT22;3665;51.034;13.642;2022-08-01T04:47:07;19.20;1.00
7248;DHT22;3665;51.034;13.642;2022-08-01T04:51:53;19.20;1.00
7248;DHT22;3665;51.034;13.642;2022-08-01T04:56:39;19.30;1.00
7248;DHT22;3665;51.034;13.642;2022-08-01T05:01:25;19.40;1.00
7248;DHT22;3665;51.034;13.642;2022-08-01T05:06:08;19.60;1.00
7248;DHT22;3665;51.034;13.642;2022-08-01T05:10:52;19.50;1.00
7248;DHT22;3665;51.034;13.642;2022-08-01T05:15:36;19.30;1.00
7248;DHT22;3665;51.034;13.642;2022-08-01T05:20:21;19.10;1.00
7248;DHT22;3665;51.034;13.642;2022-08-01T05:25:05;19.20;1.00
7248;DHT22;3665;51.034;13.642;2022-08-01T05:29:51;19.30;1.00
7248;DHT22;3665;51.034;13.642;2022-08-01T05:34:37;19.60;1.00
7248;DHT22;3665;51.034;13.642;2022-08-01T05:39:25;20.10;1.00
7248;DHT22;3665;51.034;13.642;2022-08-01T05:44:09;20.20;1.00
7248;DHT22;3665;51.034;13.642;2022-08-01T05:48:56;20.30;1.00
7248;DHT22;3665;51.034;13.642;2022-08-01T05:53:40;20.20;1.00
7248;DHT22;3665;51.034;13.642;2022-08-01T05:58:26;20.30;1.00
7248;DHT22;3665;51.034;13.642;2022-08-01T06:03:09;20.60;1.00
7248;DHT22;3665;51.034;13.642;2022-08-01T06:07:53;20.70;1.00
7248;DHT22;3665;51.034;13.642;2022-08-01T06:12:37;20.70;1.00
7248;DHT22;3665;51.034;13.642;2022-08-01T06:17:22;20.60;1.00
7248;DHT22;3665;51.034;13.642;2022-08-01T06:22:06;20.60;1.00
7248;DHT22;3665;51.034;13.642;2022-08-01T06:26:50;20.40;1.00
7248;DHT22;3665;51.034;13.642;2022-08-01T06:31:34;20.70;1.00
7248;DHT22;3665;51.034;13.642;2022-08-01T06:36:19;20.60;1.00
7248;DHT22;3665;51.034;13.642;2022-08-01T06:41:03;20.70;1.00
7248;DHT22;3665;51.034;13.642;2022-08-01T06:45:47;21.00;1.00
7248;DHT22;3665;51.034;13.642;2022-08-01T06:50:33;21.00;1.00
7248;DHT22;3665;51.034;13.642;2022-08-01T06:55:19;20.90;1.00
7248;DHT22;3665;51.034;13.642;2022-08-01T07:00:09;20.70;1.00
7248;DHT22;3665;51.034;13.642;2022-08-01T07:04:55;20.60;1.00
7248;DHT22;3665;51.034;13.642;2022-08-01T07:09:43;20.30;16.30
7248;DHT22;3665;51.034;13.642;2022-08-01T07:14:29;20.00;85.60
7248;DHT22;3665;51.034;13.642;2022-08-01T07:19:13;20.10;62.30
7248;DHT22;3665;51.034;13.642;2022-08-01T07:23:57;20.00;99.90
7248;DHT22;3665;51.034;13.642;2022-08-01T07:28:41;19.80;80.50
7248;DHT22;3665;51.034;13.642;2022-08-01T07:33:27;19.80;99.90
7248;DHT22;3665;51.034;13.642;2022-08-01T07:38:30;19.80;99.90
7248;DHT22;3665;51.034;13.642;2022-08-01T07:43:14;19.80;99.90
7248;DHT22;3665;51.034;13.642;2022-08-01T07:48:02;20.30;52.50
7248;DHT22;3665;51.034;13.642;2022-08-01T07:52:51;20.60;1.00
7248;DHT22;3665;51.034;13.642;2022-08-01T07:57:35;20.70;1.00
7248;DHT22;3665;51.034;13.642;2022-08-01T08:02:19;21.10;1.00
7248;DHT22;3665;51.034;13.642;2022-08-01T08:07:03;21.40;1.00
7248;DHT22;3665;51.034;13.642;2022-08-01T08:11:49;21.40;1.00
7248;DHT22;3665;51.034;13.642;2022-08-01T08:16:32;21.60;1.00
7248;DHT22;3665;51.034;13.642;2022-08-01T08:21:16;22.00;1.00
7248;DHT22;3665;51.034;13.642;2022-08-01T08:26:00;22.00;1.00
7248;DHT22;3665;51.034;13.642;2022-08-01T08:30:45;22.40;1.00
7248;DHT22;3665;51.034;13.642;2022-08-01T08:35:29;22.50;1.00
7248;DHT22;3665;51.034;13.642;2022-08-01T08:40:35;22.80;1.00
7248;DHT22;3665;51.034;13.642;2022-08-01T08:45:23;23.00;1.00
7248;DHT22;3665;51.034;13.642;2022-08-01T08:50:29;23.80;1.00
7248;DHT22;3665;51.034;13.642;2022-08-01T08:55:13;23.90;1.00
7248;DHT22;3665;51.034;13.642;2022-08-01T08:59:57;24.00;1.00
7248;DHT22;3665;51.034;13.642;2022-08-01T09:04:42;24.20;1.00
7248;DHT22;3665;51.034;13.642;2022-08-01T09:09:27;24.80;1.00
7248;DHT22;3665;51.034;13.642;2022-08-01T09:14:25;25.20;1.00
7248;DHT22;3665;51.034;13.642;2022-08-01T09:19:17;25.60;1.00
7248;DHT22;3665;51.034;13.642;2022-08-01T09:24:21;25.30;1.00
7248;DHT22;3665;51.034;13.642;2022-08-01T09:29:21;26.20;1.00
7248;DHT22;3665;51.034;13.642;2022-08-01T09:34:26;27.00;1.00
7248;DHT22;3665;51.034;13.642;2022-08-01T09:39:12;26.40;1.00
7248;DHT22;3665;51.034;13.642;2022-08-01T09:43:57;26.20;1.00
7248;DHT22;3665;51.034;13.642;2022-08-01T09:48:56;26.20;1.00
7248;DHT22;3665;51.034;13.642;2022-08-01T09:53:42;26.80;1.00
7248;DHT22;3665;51.034;13.642;2022-08-01T09:58:49;27.10;1.00
7248;DHT22;3665;51.034;13.642;2022-08-01T10:03:41;27.30;1.00
7248;DHT22;3665;51.034;13.642;2022-08-01T10:08:26;27.70;1.00
7248;DHT22;3665;51.034;13.642;2022-08-01T10:13:11;27.30;1.00
7248;DHT22;3665;51.034;13.642;2022-08-01T10:17:57;27.30;1.00
7248;DHT22;3665;51.034;13.642;2022-08-01T10:22:42;27.10;1.00
7248;DHT22;3665;51.034;13.642;2022-08-01T10:27:30;27.60;1.00
7248;DHT22;3665;51.034;13.642;2022-08-01T10:32:21;26.70;1.00
7248;DHT22;3665;51.034;13.642;2022-08-01T10:37:10;25.20;1.00
7248;DHT22;3665;51.034;13.642;2022-08-01T10:41:56;23.50;1.00
7248;DHT22;3665;51.034;13.642;2022-08-01T10:46:46;23.20;1.00
7248;DHT22;3665;51.034;13.642;2022-08-01T10:51:35;22.50;1.00
7248;DHT22;3665;51.034;13.642;2022-08-01T10:56:40;22.70;1.00
7248;DHT22;3665;51.034;13.642;2022-08-01T11:01:29;23.10;1.00
7248;DHT22;3665;51.034;13.642;2022-08-01T11:06:22;24.30;1.00
7248;DHT22;3665;51.034;13.642;2022-08-01T11:11:08;25.20;1.00
7248;DHT22;3665;51.034;13.642;2022-08-01T11:16:24;25.20;1.00
7248;DHT22;3665;51.034;13.642;2022-08-01T11:21:08;25.60;1.00
7248;DHT22;3665;51.034;13.642;2022-08-01T11:26:15;25.80;1.00
7248;DHT22;3665;51.034;13.642;2022-08-01T11:31:28;25.40;1.00
7248;DHT22;3665;51.034;13.642;2022-08-01T11:36:19;26.60;1.00
7248;DHT22;3665;51.034;13.642;2022-08-01T11:41:28;26.90;1.00
7248;DHT22;3665;51.034;13.642;2022-08-01T11:51:39;27.30;1.00
7248;DHT22;3665;51.034;13.642;2022-08-01T11:56:25;27.10;1.00
7248;DHT22;3665;51.034;13.642;2022-08-01T12:01:12;27.60;1.00
7248;DHT22;3665;51.034;13.642;2022-08-01T12:05:57;28.40;1.00
7248;DHT22;3665;51.034;13.642;2022-08-01T12:10:49;27.10;1.00
7248;DHT22;3665;51.034;13.642;2022-08-01T12:15:45;27.30;1.00
7248;DHT22;3665;51.034;13.642;2022-08-01T12:20:40;28.60;1.00
7248;DHT22;3665;51.034;13.642;2022-08-01T12:25:38;28.90;1.00
7248;DHT22;3665;51.034;13.642;2022-08-01T12:30:24;28.70;1.00
7248;DHT22;3665;51.034;13.642;2022-08-01T12:35:12;28.00;1.00
7248;DHT22;3665;51.034;13.642;2022-08-01T12:39:59;27.40;1.00
7248;DHT22;3665;51.034;13.642;2022-08-01T12:44:45;26.90;1.00
7248;DHT22;3665;51.034;13.642;2022-08-01T12:49:31;27.00;1.00
7248;DHT22;3665;51.034;13.642;2022-08-01T12:54:17;27.00;1.00
7248;DHT22;3665;51.034;13.642;2022-08-01T12:59:01;28.00;1.00
7248;DHT22;3665;51.034;13.642;2022-08-01T13:04:03;28.70;1.00
7248;DHT22;3665;51.034;13.642;2022-08-01T13:08:47;29.00;1.00
7248;DHT22;3665;51.034;13.642;2022-08-01T13:13:40;28.70;1.00
7248;DHT22;3665;51.034;13.642;2022-08-01T13:18:36;29.00;1.00
7248;DHT22;3665;51.034;13.642;2022-08-01T13:23:20;29.20;1.00
7248;DHT22;3665;51.034;13.642;2022-08-01T13:28:27;29.20;1.00
7248;DHT22;3665;51.034;13.642;2022-08-01T13:33:12;29.50;1.00
7248;DHT22;3665;51.034;13.642;2022-08-01T13:37:58;29.60;1.00
7248;DHT22;3665;51.034;13.642;2022-08-01T13:42:42;29.20;1.00
7248;DHT22;3665;51.034;13.642;2022-08-01T13:47:26;28.60;1.00
7248;DHT22;3665;51.034;13.642;2022-08-01T13:52:15;29.20;1.00
7248;DHT22;3665;51.034;13.642;2022-08-01T13:56:59;28.70;1.00
7248;DHT22;3665;51.034;13.642;2022-08-01T14:01:46;28.60;1.00
7248;DHT22;3665;51.034;13.642;2022-08-01T14:06:30;28.80;1.00
7248;DHT22;3665;51.034;13.642;2022-08-01T14:11:18;28.50;1.00
7248;DHT22;3665;51.034;13.642;2022-08-01T14:16:18;27.70;1.00
7248;DHT22;3665;51.034;13.642;2022-08-01T14:21:06;26.80;1.00
7248;DHT22;3665;51.034;13.642;2022-08-01T14:25:53;26.40;1.00
7248;DHT22;3665;51.034;13.642;2022-08-01T14:30:48;26.30;1.00
7248;DHT22;3665;51.034;13.642;2022-08-01T14:35:32;26.40;1.00
7248;DHT22;3665;51.034;13.642;2022-08-01T14:40:36;26.50;1.00
7248;DHT22;3665;51.034;13.642;2022-08-01T14:45:23;27.00;1.00
7248;DHT22;3665;51.034;13.642;2022-08-01T14:50:12;27.50;1.00
7248;DHT22;3665;51.034;13.642;2022-08-01T14:54:56;27.80;1.00
7248;DHT22;3665;51.034;13.642;2022-08-01T14:59:42;27.70;1.00
7248;DHT22;3665;51.034;13.642;2022-08-01T15:04:26;27.70;1.00
7248;DHT22;3665;51.034;13.642;2022-08-01T15:09:12;28.20;1.00
7248;DHT22;3665;51.034;13.642;2022-08-01T15:13:56;28.10;1.00
7248;DHT22;3665;51.034;13.642;2022-08-01T15:18:57;27.40;1.00
7248;DHT22;3665;51.034;13.642;2022-08-01T15:23:41;26.90;1.00
7248;DHT22;3665;51.034;13.642;2022-08-01T15:28:31;26.90;1.00
7248;DHT22;3665;51.034;13.642;2022-08-01T15:33:15;27.00;1.00
7248;DHT22;3665;51.034;13.642;2022-08-01T15:37:59;27.20;1.00
7248;DHT22;3665;51.034;13.642;2022-08-01T15:42:44;27.00;1.00
7248;DHT22;3665;51.034;13.642;2022-08-01T15:47:29;27.20;1.00
7248;DHT22;3665;51.034;13.642;2022-08-01T15:52:13;27.00;1.00
7248;DHT22;3665;51.034;13.642;2022-08-01T15:57:04;26.70;1.00
7248;DHT22;3665;51.034;13.642;2022-08-01T16:01:48;26.80;1.00
7248;DHT22;3665;51.034;13.642;2022-08-01T16:06:35;26.80;1.00
7248;DHT22;3665;51.034;13.642;2022-08-01T16:11:19;26.80;1.00
7248;DHT22;3665;51.034;13.642;2022-08-01T16:16:06;27.20;1.00
7248;DHT22;3665;51.034;13.642;2022-08-01T16:20:50;27.50;1.00
7248;DHT22;3665;51.034;13.642;2022-08-01T16:25:35;26.90;1.00
7248;DHT22;3665;51.034;13.642;2022-08-01T16:30:19;26.80;1.00
7248;DHT22;3665;51.034;13.642;2022-08-01T16:35:04;27.10;1.00
7248;DHT22;3665;51.034;13.642;2022-08-01T16:39:51;26.60;1.00
7248;DHT22;3665;51.034;13.642;2022-08-01T16:44:39;26.40;1.00
7248;DHT22;3665;51.034;13.642;2022-08-01T16:49:25;26.20;1.00
7248;DHT22;3665;51.034;13.642;2022-08-01T16:54:11;26.00;1.00
7248;DHT22;3665;51.034;13.642;2022-08-01T16:59:07;25.80;1.00
7248;DHT22;3665;51.034;13.642;2022-08-01T17:03:52;25.50;1.00
7248;DHT22;3665;51.034;13.642;2022-08-01T17:08:42;25.40;1.00
7248;DHT22;3665;51.034;13.642;2022-08-01T17:14:19;25.20;1.00
7248;DHT22;3665;51.034;13.642;2022-08-01T17:19:04;25.00;1.00
7248;DHT22;3665;51.034;13.642;2022-08-01T17:23:47;25.00;1.00
7248;DHT22;3665;51.034;13.642;2022-08-01T17:28:31;24.90;1.00
7248;DHT22;3665;51.034;13.642;2022-08-01T17:33:15;24.80;1.00
7248;DHT22;3665;51.034;13.642;2022-08-01T17:38:00;24.60;1.00
7248;DHT22;3665;51.034;13.642;2022-08-01T17:42:46;24.40;1.00
7248;DHT22;3665;51.034;13.642;2022-08-01T17:47:33;24.10;1.00
7248;DHT22;3665;51.034;13.642;2022-08-01T17:52:33;23.90;1.00
7248;DHT22;3665;51.034;13.642;2022-08-01T17:57:19;23.60;1.00
7248;DHT22;3665;51.034;13.642;2022-08-01T18:02:03;23.40;1.00
7248;DHT22;3665;51.034;13.642;2022-08-01T18:06:48;23.30;1.00
7248;DHT22;3665;51.034;13.642;2022-08-01T18:11:42;23.10;1.00
7248;DHT22;3665;51.034;13.642;2022-08-01T18:16:27;22.80;1.00
7248;DHT22;3665;51.034;13.642;2022-08-01T18:21:11;22.60;1.00
7248;DHT22;3665;51.034;13.642;2022-08-01T18:25:56;22.30;1.00
7248;DHT22;3665;51.034;13.642;2022-08-01T18:30:42;22.20;1.00
7248;DHT22;3665;51.034;13.642;2022-08-01T18:35:28;22.10;1.00
7248;DHT22;3665;51.034;13.642;2022-08-01T18:40:32;21.90;1.00
7248;DHT22;3665;51.034;13.642;2022-08-01T18:45:16;21.70;1.00
7248;DHT22;3665;51.034;13.642;2022-08-01T18:50:00;21.40;1.00
7248;DHT22;3665;51.034;13.642;2022-08-01T18:54:46;21.20;1.00
7248;DHT22;3665;51.034;13.642;2022-08-01T18:59:30;20.90;1.00
7248;DHT22;3665;51.034;13.642;2022-08-01T19:04:15;20.80;1.00
7248;DHT22;3665;51.034;13.642;2022-08-01T19:09:08;20.50;1.00
7248;DHT22;3665;51.034;13.642;2022-08-01T19:14:06;20.30;1.00
7248;DHT22;3665;51.034;13.642;2022-08-01T19:18:53;20.00;1.00
7248;DHT22;3665;51.034;13.642;2022-08-01T19:23:38;19.80;1.00
7248;DHT22;3665;51.034;13.642;2022-08-01T19:28:43;19.60;1.00
7248;DHT22;3665;51.034;13.642;2022-08-01T19:33:36;19.40;1.00
7248;DHT22;3665;51.034;13.642;2022-08-01T19:38:41;19.10;1.00
7248;DHT22;3665;51.034;13.642;2022-08-01T19:43:29;18.80;1.00
7248;DHT22;3665;51.034;13.642;2022-08-01T19:48:22;18.50;1.00
7248;DHT22;3665;51.034;13.642;2022-08-01T19:53:10;18.40;1.00
7248;DHT22;3665;51.034;13.642;2022-08-01T19:57:59;18.30;1.00
7248;DHT22;3665;51.034;13.642;2022-08-01T20:03:04;18.30;1.00
7248;DHT22;3665;51.034;13.642;2022-08-01T20:07:50;18.30;1.00
7248;DHT22;3665;51.034;13.642;2022-08-01T20:12:37;18.20;1.00
7248;DHT22;3665;51.034;13.642;2022-08-01T20:17:38;18.00;1.00
7248;DHT22;3665;51.034;13.642;2022-08-01T20:22:33;17.80;1.00
7248;DHT22;3665;51.034;13.642;2022-08-01T20:27:18;17.80;1.00
7248;DHT22;3665;51.034;13.642;2022-08-01T20:32:14;17.70;1.00
7248;DHT22;3665;51.034;13.642;2022-08-01T20:37:05;17.70;1.00
7248;DHT22;3665;51.034;13.642;2022-08-01T20:41:55;17.50;1.00
7248;DHT22;3665;51.034;13.642;2022-08-01T20:46:46;17.40;1.00
7248;DHT22;3665;51.034;13.642;2022-08-01T20:51:39;17.20;1.00
7248;DHT22;3665;51.034;13.642;2022-08-01T20:56:37;17.10;1.00
7248;DHT22;3665;51.034;13.642;2022-08-01T21:01:33;17.00;1.00
7248;DHT22;3665;51.034;13.642;2022-08-01T21:06:31;16.90;1.00
7248;DHT22;3665;51.034;13.642;2022-08-01T21:11:21;16.90;1.00
7248;DHT22;3665;51.034;13.642;2022-08-01T21:16:11;16.80;1.00
7248;DHT22;3665;51.034;13.642;2022-08-01T21:21:08;16.70;1.00
7248;DHT22;3665;51.034;13.642;2022-08-01T21:26:10;16.70;1.00
7248;DHT22;3665;51.034;13.642;2022-08-01T21:31:06;16.60;1.00
7248;DHT22;3665;51.034;13.642;2022-08-01T21:35:59;16.60;1.00
7248;DHT22;3665;51.034;13.642;2022-08-01T21:41:26;16.50;1.00
7248;DHT22;3665;51.034;13.642;2022-08-01T21:46:53;16.50;1.00
7248;DHT22;3665;51.034;13.642;2022-08-01T21:52:09;16.60;1.00
7248;DHT22;3665;51.034;13.642;2022-08-01T21:57:33;16.60;1.00
7248;DHT22;3665;51.034;13.642;2022-08-01T22:02:34;16.80;1.00
7248;DHT22;3665;51.034;13.642;2022-08-01T22:07:40;16.80;1.00
7248;DHT22;3665;51.034;13.642;2022-08-01T22:18:04;16.80;1.00
7248;DHT22;3665;51.034;13.642;2022-08-01T22:23:05;16.80;1.00
7248;DHT22;3665;51.034;13.642;2022-08-01T22:28:04;16.80;1.00
7248;DHT22;3665;51.034;13.642;2022-08-01T22:33:03;16.80;1.00
7248;DHT22;3665;51.034;13.642;2022-08-01T22:38:10;16.80;1.00
7248;DHT22;3665;51.034;13.642;2022-08-01T22:43:01;17.00;1.00
7248;DHT22;3665;51.034;13.642;2022-08-01T22:47:56;17.00;1.00
7248;DHT22;3665;51.034;13.642;2022-08-01T22:52:51;16.90;1.00
7248;DHT22;3665;51.034;13.642;2022-08-01T22:57:45;16.80;1.00
7248;DHT22;3665;51.034;13.642;2022-08-01T23:02:35;16.70;1.00
7248;DHT22;3665;51.034;13.642;2022-08-01T23:07:23;16.70;1.00
7248;DHT22;3665;51.034;13.642;2022-08-01T23:12:18;16.60;1.00
7248;DHT22;3665;51.034;13.642;2022-08-01T23:17:02;16.50;1.00
7248;DHT22;3665;51.034;13.642;2022-08-01T23:22:09;16.30;1.00
7248;DHT22;3665;51.034;13.642;2022-08-01T23:26:56;16.40;11.10
7248;DHT22;3665;51.034;13.642;2022-08-01T23:32:03;16.40;1.00
7248;DHT22;3665;51.034;13.642;2022-08-01T23:36:48;16.40;1.00
7248;DHT22;3665;51.034;13.642;2022-08-01T23:41:32;16.50;7.00
7248;DHT22;3665;51.034;13.642;2022-08-01T23:46:39;16.40;29.30
7248;DHT22;3665;51.034;13.642;2022-08-01T23:51:24;16.50;5.90
7248;DHT22;3665;51.034;13.642;2022-08-01T23:56:08;16.60;1.00
